Data for 12/15/2007

Time Sea-Level Adjusted Pressure Absolute Pressure Temperature Relative Humidity Dew Point   
(mb) (inHg) (mb) (inHg) (C) (F) (%) (C) (F)
00:05 1021 30.15 850 25.1 -7.9 17.7 65 -13.4 8
00:10 1021 30.15 850 25.1 -8.2 17.3 66 -13.5 7.8
00:15 1021 30.15 850 25.1 -8.2 17.3 66 -13.5 7.7
00:20 1020 30.12 850 25.1 -8.3 17 66 -13.6 7.5
00:25 1020 30.12 850 25.1 -8.3 17.1 66 -13.6 7.5
00:30 1020 30.12 850 25.1 -8.2 17.2 66 -13.6 7.6
00:35 1020 30.12 850 25.1 -8.2 17.2 65 -13.6 7.5
00:40 1020 30.12 850 25.1 -8.1 17.5 65 -13.6 7.6
00:45 1020 30.12 850 25.1 -8 17.7 65 -13.5 7.7
00:50 1020 30.12 849 25.07 -8.1 17.5 65 -13.6 7.5
00:55 1020 30.12 849 25.07 -8.3 17.1 66 -13.5 7.7
01:00 1020 30.12 849 25.07 -8.5 16.7 66 -13.8 7.2
01:05 1020 30.12 849 25.07 -8.5 16.8 66 -13.7 7.3
01:10 1020 30.12 849 25.07 -8.5 16.6 66 -13.8 7.2
01:15 1020 30.12 849 25.07 -8.6 16.5 66 -13.8 7.1
01:20 1020 30.12 849 25.07 -8.5 16.6 66 -13.8 7.2
01:25 1020 30.12 849 25.07 -8.6 16.6 65 -13.9 7
01:30 1020 30.12 849 25.07 -8.4 16.8 65 -13.9 7
01:35 1020 30.12 849 25.07 -8.1 17.4 64 -13.8 7.2
01:40 1020 30.12 849 25.07 -8.4 16.9 65 -13.8 7.2
01:45 1020 30.12 849 25.07 -8.9 16.1 67 -13.9 7
01:50 1020 30.12 849 25.07 -9.5 15 70 -14 6.7
01:55 1020 30.12 849 25.07 -9.9 14.2 71 -14.2 6.4
02:00 1020 30.12 849 25.07 -9.8 14.4 70 -14.4 6.2
02:05 1020 30.12 849 25.07 -9.5 15 66 -14.7 5.6
02:10 1020 30.12 849 25.07 -9.6 14.8 67 -14.7 5.6
02:15 1020 30.12 849 25.07 -10.1 13.8 68 -14.9 5.1
02:20 1020 30.12 849 25.07 -10.6 13 69 -15.2 4.7
02:25 1020 30.12 849 25.07 -10.6 12.9 68 -15.4 4.2
02:30 1020 30.12 849 25.07 -10.4 13.4 68 -15.3 4.5
02:35 1020 30.12 849 25.07 -10.8 12.5 69 -15.4 4.2
02:40 1020 30.12 849 25.07 -10.9 12.4 69 -15.5 4.2
02:45 1020 30.12 849 25.07 -10.8 12.6 69 -15.4 4.2
02:50 1020 30.12 849 25.07 -10.9 12.4 69 -15.5 4.2
02:55 1020 30.12 849 25.07 -11.1 12 71 -15.4 4.3
03:00 1020 30.12 849 25.07 -10.7 12.8 70 -15.1 4.7
03:05 1020 30.12 849 25.07 -10.3 13.5 67 -15.2 4.7
03:10 1020 30.12 849 25.07 -10.5 13.2 69 -15.1 4.8
03:15 1019 30.09 849 25.07 -10.5 13.1 69 -15.1 4.8
03:20 1019 30.09 849 25.07 -10.1 13.8 68 -15 5
03:25 1019 30.09 849 25.07 -10.5 13.1 70 -14.9 5.2
03:30 1019 30.09 849 25.07 -10.6 13 69 -15.2 4.7
03:35 1019 30.09 849 25.07 -10.5 13.1 68 -15.3 4.4
03:40 1019 30.09 849 25.07 -10.6 13 69 -15.3 4.5
03:45 1019 30.09 848 25.04 -10.6 13 68 -15.4 4.3
03:50 1019 30.09 848 25.04 -10.5 13.1 68 -15.4 4.3
03:55 1019 30.09 848 25.04 -10.3 13.4 67 -15.3 4.4
04:00 1019 30.09 848 25.04 -10.3 13.5 66 -15.5 4.1
04:05 1019 30.09 848 25.04 -10 14 65 -15.4 4.2
04:10 1019 30.09 848 25.04 -9.8 14.4 64 -15.4 4.2
04:15 1019 30.09 848 25.04 -9.8 14.4 63 -15.5 4.1
04:20 1019 30.09 848 25.04 -9.7 14.5 63 -15.5 4.2
04:25 1019 30.09 848 25.04 -10 14 64 -15.5 4
04:30 1019 30.09 848 25.04 -10.1 13.8 64 -15.7 3.8
04:35 1019 30.09 848 25.04 -9.8 14.4 63 -15.6 4
04:40 1019 30.09 848 25.04 -10 13.9 65 -15.5 4.1
04:45 1019 30.09 848 25.04 -10.3 13.5 65 -15.7 3.7
04:50 1019 30.09 848 25.04 -10.3 13.4 65 -15.6 3.8
04:55 1018 30.06 848 25.04 -10.4 13.2 66 -15.7 3.8
05:00 1018 30.06 848 25.04 -10.5 13.1 66 -15.7 3.7
05:05 1018 30.06 848 25.04 -10.7 12.8 66 -15.8 3.6
05:10 1018 30.06 848 25.04 -10.5 13 65 -15.9 3.4
05:15 1018 30.06 847 25.01 -10.5 13.2 65 -15.9 3.4
05:20 1018 30.06 847 25.01 -10.4 13.3 65 -15.8 3.6
05:25 1018 30.06 847 25.01 -10.3 13.6 65 -15.7 3.7
05:30 1018 30.06 847 25.01 -10.2 13.7 65 -15.6 3.9
05:35 1018 30.06 847 25.01 -10 14 63 -15.7 3.8
05:40 1018 30.06 847 25.01 -9.9 14.3 64 -15.5 4.1
05:45 1018 30.06 847 25.01 -9.8 14.3 64 -15.4 4.2
05:50 1018 30.06 847 25.01 -9.8 14.4 64 -15.4 4.2
05:55 1018 30.06 847 25.01 -9.7 14.6 63 -15.4 4.3
06:00 1018 30.06 847 25.01 -9.6 14.7 64 -15.3 4.5
06:05 1018 30.06 847 25.01 -9.5 15 61 -15.6 3.9
06:10 1018 30.06 847 25.01 -9 15.9 60 -15.3 4.4
06:15 1018 30.06 847 25.01 -8.9 16 61 -15.1 4.8
06:20 1018 30.06 847 25.01 -9.1 15.7 63 -14.9 5.2
06:25 1018 30.06 847 25.01 -9.2 15.5 63 -14.9 5.1
06:30 1018 30.06 847 25.01 -9.2 15.5 63 -14.9 5.2
06:35 1017 30.03 847 25.01 -9.1 15.5 63 -15 5
06:40 1017 30.03 847 25.01 -9.1 15.7 62 -15.1 4.8
06:45 1017 30.03 847 25.01 -8.9 15.9 61 -15.3 4.5
06:50 1017 30.03 847 25.01 -8.9 16.1 59 -15.4 4.3
06:55 1017 30.03 847 25.01 -8.7 16.3 59 -15.3 4.4
07:00 1017 30.03 847 25.01 -8.5 16.7 58 -15.3 4.5
07:05 1017 30.03 847 25.01 -8.5 16.8 58 -15.3 4.5
07:10 1017 30.03 847 25.01 -8.4 16.8 58 -15.3 4.5
07:15 1017 30.03 847 25.01 -8.4 17 57 -15.4 4.3
07:20 1017 30.03 847 25.01 -8.2 17.3 57 -15.2 4.6
07:25 1017 30.03 846 24.98 -8.3 17.1 58 -15.2 4.6
07:30 1017 30.03 846 24.98 -8.3 17.1 58 -15.2 4.7
07:35 1017 30.03 846 24.98 -8.3 17.1 58 -15.2 4.6
07:40 1017 30.03 846 24.98 -8.3 17 58 -15.2 4.6
07:45 1017 30.03 846 24.98 -8.3 17 57 -15.4 4.3
07:50 1017 30.03 846 24.98 -8.1 17.4 57 -15.3 4.5
07:55 1017 30.03 847 25.01 -8 17.6 57 -15.1 4.7
08:00 1017 30.03 846 24.98 -8 17.5 57 -15.2 4.7
08:05 1017 30.03 846 24.98 -8 17.7 57 -15.2 4.7
08:10 1017 30.03 846 24.98 -7.9 17.7 56 -15.2 4.7
08:15 1017 30.03 846 24.98 -7.9 17.8 57 -15 5
08:20 1017 30.03 846 24.98 -7.8 17.9 57 -14.9 5.1
08:25 1017 30.03 846 24.98 -7.7 18.1 57 -14.8 5.3
08:30 1017 30.03 846 24.98 -7.8 17.9 59 -14.6 5.8
08:35 1017 30.03 846 24.98 -8.2 17.2 61 -14.5 6
08:40 1017 30.03 846 24.98 -8.3 17.1 60 -14.8 5.3
08:45 1017 30.03 846 24.98 -8.3 17.1 59 -14.9 5.2
08:50 1017 30.03 846 24.98 -8.2 17.3 59 -14.9 5.2
08:55 1017 30.03 846 24.98 -8.1 17.5 61 -14.4 6.1
09:00 1017 30.03 846 24.98 -8 17.7 60 -14.4 6
09:05 1017 30.03 846 24.98 -7.6 18.2 60 -14.2 6.5
09:10 1017 30.03 846 24.98 -7.3 18.8 59 -14.1 6.6
09:15 1017 30.03 846 24.98 -7 19.4 56 -14.3 6.3
09:20 1017 30.03 846 24.98 -6.8 19.8 57 -14.1 6.7
09:25 1017 30.03 846 24.98 -6.7 19.9 55 -14.3 6.2
09:30 1017 30.03 846 24.98 -6.5 20.2 54 -14.3 6.2
09:35 1017 30.03 846 24.98 -6.5 20.4 59 -13.2 8.2
09:40 1017 30.03 846 24.98 -6.7 20 62 -12.8 8.9
09:45 1017 30.03 846 24.98 -6.5 20.3 57 -13.6 7.5
09:50 1017 30.03 846 24.98 -6.4 20.4 56 -13.7 7.3
09:55 1017 30.03 846 24.98 -6.3 20.7 60 -12.7 9.1
10:00 1017 30.03 846 24.98 -6 21.3 56 -13.3 8.1
10:05 1017 30.03 846 24.98 -5.6 21.8 56 -13.1 8.5
10:10 1017 30.03 846 24.98 -5.4 22.4 54 -13.2 8.2
10:15 1017 30.03 846 24.98 -5 23 55 -12.8 9
10:20 1017 30.03 846 24.98 -4.8 23.3 56 -12.4 9.6
10:25 1017 30.03 846 24.98 -4.9 23.1 56 -12.3 9.8
10:30 1017 30.03 846 24.98 -4.8 23.3 57 -12.1 10.3
10:35 1017 30.03 846 24.98 -4.9 23.2 57 -12.2 10.1
10:40 1017 30.03 846 24.98 -5 23.1 56 -12.4 9.7
10:45 1017 30.03 846 24.98 -5 23.1 56 -12.4 9.7
10:50 1017 30.03 846 24.98 -4.7 23.6 58 -11.7 10.9
10:55 1017 30.03 846 24.98 -4.6 23.7 63 -10.7 12.8
11:00 1017 30.03 847 25.01 -4.6 23.8 62 -10.9 12.4
11:05 1017 30.03 847 25.01 -4.2 24.4 62 -10.5 13.1
11:10 1017 30.03 847 25.01 -3.9 24.9 61 -10.4 13.2
11:15 1017 30.03 847 25.01 -3.8 25.1 56 -11.3 11.7
11:20 1017 30.03 846 24.98 -3.7 25.3 59 -10.7 12.7
11:25 1017 30.03 846 24.98 -3.8 25.1 60 -10.5 13.1
11:30 1017 30.03 846 24.98 -3.7 25.3 58 -10.9 12.4
11:35 1017 30.03 846 24.98 -3.6 25.5 57 -11 12.3
11:40 1017 30.03 846 24.98 -4.3 24.3 60 -10.9 12.3
11:45 1017 30.03 846 24.98 -4.4 24.1 61 -10.8 12.5
11:50 1017 30.03 846 24.98 -3.8 25.1 59 -10.6 12.9
11:55 1017 30.03 846 24.98 -2.9 26.8 58 -10.1 13.8
12:00 1017 30.03 846 24.98 -3.3 26.1 59 -10.3 13.5
12:05 1017 30.03 846 24.98 -3.4 25.9 62 -9.7 14.5
12:10 1016 30 846 24.98 -3.6 25.6 64 -9.4 15
12:15 1016 30 845 24.95 -3.5 25.6 64 -9.4 15.1
12:20 1016 30 845 24.95 -3.5 25.7 65 -9.2 15.4
12:25 1016 30 845 24.95 -3.3 26 63 -9.5 14.9
12:30 1016 30 845 24.95 -2.9 26.8 60 -9.5 14.8
12:35 1016 30 845 24.95 -1.9 28.6 59 -9 15.9
12:40 1016 30 845 24.95 -1.1 30.1 55 -8.9 15.9
12:45 1016 30 845 24.95 -1.2 29.8 59 -8.3 17.1
12:50 1016 30 845 24.95 -1.3 29.7 57 -8.7 16.4
12:55 1016 30 845 24.95 -1.2 29.9 58 -8.3 17
13:00 1016 30 845 24.95 -1.5 29.3 58 -8.7 16.3
13:05 1016 30 845 24.95 -1.3 29.7 58 -8.4 16.8
13:10 1016 30 845 24.95 -1.5 29.3 60 -8.2 17.2
13:15 1016 30 845 24.95 -1.6 29.2 60 -8.3 17
13:20 1016 30 845 24.95 -1.5 29.2 60 -8.3 17
13:25 1016 30 845 24.95 -1.1 30.1 56 -8.7 16.3
13:30 1016 30 845 24.95 -1 30.2 57 -8.5 16.8
13:35 1016 30 845 24.95 -1.4 29.4 58 -8.6 16.5
13:40 1016 30 845 24.95 -1.7 29 59 -8.6 16.6
13:45 1016 30 845 24.95 -1.6 29.1 58 -8.8 16.1
13:50 1016 30 845 24.95 -1.3 29.7 57 -8.8 16.2
13:55 1016 30 845 24.95 -1.3 29.7 56 -8.9 16
14:00 1016 30 845 24.95 -1.1 29.9 57 -8.7 16.3
14:05 1016 30 845 24.95 -1.3 29.7 57 -8.8 16.2
14:10 1016 30 845 24.95 -1.3 29.7 59 -8.4 16.9
14:15 1016 30 845 24.95 -2 28.4 61 -8.7 16.4
14:20 1016 30 845 24.95 -2.1 28.2 61 -8.8 16.2
14:25 1016 30 845 24.95 -1.5 29.3 58 -8.6 16.4
14:30 1016 30 845 24.95 -0.5 31.1 52 -9.2 15.5
14:35 1016 30 845 24.95 0.8 33.5 50 -8.6 16.6
14:40 1016 30 845 24.95 0.9 33.6 50 -8.4 17
14:45 1016 30 845 24.95 1.5 34.7 49 -8 17.7
14:50 1016 30 845 24.95 0.8 33.4 52 -7.9 17.8
14:55 1016 30 845 24.95 -0.1 31.9 54 -8.2 17.2
15:00 1016 30 845 24.95 -0.8 30.6 56 -8.4 16.9
15:05 1016 30 845 24.95 -0.7 30.7 56 -8.4 16.9
15:10 1016 30 845 24.95 -0.9 30.3 58 -8.2 17.2
15:15 1016 30 845 24.95 -0.8 30.5 60 -7.7 18.1
15:20 1016 30 845 24.95 -0.8 30.5 57 -8.4 16.9
15:25 1016 30 845 24.95 -0.7 30.8 57 -8.2 17.2
15:30 1016 30 845 24.95 -0.5 31.1 55 -8.3 17
15:35 1016 30 845 24.95 -0.2 31.6 54 -8.4 16.9
15:40 1016 30 845 24.95 -0.2 31.7 55 -8.2 17.2
15:45 1016 30 845 24.95 -0.3 31.5 55 -8.3 17
15:50 1016 30 845 24.95 -0.2 31.7 55 -8.1 17.5
15:55 1016 30 845 24.95 -0.4 31.3 55 -8.4 17
16:00 1016 30 845 24.95 0.2 32.4 52 -8.5 16.8
16:05 1015 29.97 845 24.95 0.4 32.8 52 -8.2 17.2
16:10 1015 29.97 845 24.95 0.9 33.6 52 -8 17.6
16:15 1015 29.97 845 24.95 0.9 33.5 53 -7.7 18.1
16:20 1015 29.97 845 24.95 0.5 32.9 54 -7.7 18.2
16:25 1015 29.97 845 24.95 -0.2 31.7 59 -7.2 19
16:30 1015 29.97 845 24.95 -0.9 30.4 59 -8 17.7
16:35 1015 29.97 844 24.92 -1 30.2 60 -7.9 17.8
16:40 1015 29.97 845 24.95 -1.1 30.1 57 -8.5 16.7
16:45 1015 29.97 845 24.95 -0.8 30.5 58 -8.1 17.4
16:50 1015 29.97 845 24.95 -0.9 30.3 58 -8.3 17.1
16:55 1015 29.97 845 24.95 -1.1 30 59 -8.2 17.3
17:00 1015 29.97 845 24.95 -1.1 30 59 -8 17.5
17:05 1015 29.97 845 24.95 -1.2 29.9 59 -8.1 17.4
17:10 1015 29.97 845 24.95 -1.2 29.9 59 -8.2 17.3
17:15 1015 29.97 845 24.95 -1.2 29.8 59 -8.1 17.3
17:20 1015 29.97 845 24.95 -1.3 29.7 58 -8.4 16.8
17:25 1015 29.97 845 24.95 -1.1 30 57 -8.6 16.6
17:30 1015 29.97 845 24.95 -1 30.2 56 -8.7 16.4
17:35 1015 29.97 845 24.95 -1.1 30 57 -8.5 16.6
17:40 1016 30 845 24.95 -1.1 30 56 -8.8 16.1
17:45 1016 30 845 24.95 -1 30.2 55 -9 15.9
17:50 1016 30 845 24.95 -0.9 30.3 55 -9 15.8
17:55 1016 30 845 24.95 -0.8 30.5 53 -9.2 15.5
18:00 1016 30 845 24.95 -1 30.3 54 -9.1 15.7
18:05 1015 29.97 845 24.95 -1 30.2 54 -9.3 15.3
18:10 1015 29.97 845 24.95 -1.1 29.9 54 -9.2 15.4
18:15 1016 30 845 24.95 -1.2 29.8 54 -9.3 15.3
18:20 1016 30 845 24.95 -1.3 29.7 55 -9.2 15.5
18:25 1016 30 845 24.95 -1.4 29.5 56 -9.2 15.5
18:30 1016 30 845 24.95 -1.3 29.6 55 -9.1 15.6
18:35 1016 30 845 24.95 -1.4 29.4 56 -9.1 15.6
18:40 1015 29.97 845 24.95 -1.5 29.4 55 -9.3 15.2
18:45 1015 29.97 845 24.95 -1.3 29.6 56 -9 15.8
18:50 1015 29.97 845 24.95 -1.1 29.9 52 -9.7 14.5
18:55 1015 29.97 845 24.95 -0.8 30.6 52 -9.4 15.1
19:00 1015 29.97 845 24.95 -0.9 30.4 54 -9 15.7
19:05 1015 29.97 845 24.95 -1 30.2 54 -9.1 15.7
19:10 1016 30 845 24.95 -1.3 29.7 55 -9.1 15.7
19:15 1016 30 845 24.95 -1.6 29.2 57 -9 15.8
19:20 1016 30 845 24.95 -1.9 28.7 58 -9 15.8
19:25 1016 30 845 24.95 -2 28.3 60 -8.8 16.1
19:30 1016 30 845 24.95 -2.2 28 60 -9 15.9
19:35 1016 30 845 24.95 -2.2 28 59 -9.2 15.5
19:40 1016 30 845 24.95 -2.1 28.2 59 -9.1 15.7
19:45 1016 30 845 24.95 -2.1 28.3 58 -9.3 15.3
19:50 1016 30 845 24.95 -1.8 28.7 57 -9.2 15.4
19:55 1016 30 845 24.95 -1.7 28.9 59 -8.8 16.1
20:00 1016 30 845 24.95 -1.8 28.8 56 -9.3 15.2
20:05 1016 30 845 24.95 -1.6 29.1 56 -9.2 15.5
20:10 1016 30 845 24.95 -1.5 29.3 56 -9.2 15.5
20:15 1016 30 845 24.95 -1.5 29.3 57 -9 15.8
20:20 1016 30 845 24.95 -1.5 29.2 57 -8.9 15.9
20:25 1016 30 845 24.95 -1.6 29.1 58 -8.8 16.2
20:30 1016 30 845 24.95 -1.8 28.8 59 -8.8 16.2
20:35 1016 30 845 24.95 -1.8 28.7 55 -9.7 14.5
20:40 1016 30 845 24.95 -1.5 29.3 54 -9.6 14.8
20:45 1016 30 845 24.95 -1.5 29.2 55 -9.5 14.8
20:50 1016 30 845 24.95 -1.7 29 55 -9.6 14.8
20:55 1016 30 845 24.95 -1.8 28.8 55 -9.6 14.7
21:00 1016 30 845 24.95 -1.9 28.5 54 -10.1 13.9
21:05 1016 30 845 24.95 -1.9 28.5 54 -10.1 13.9
21:10 1016 30 845 24.95 -2 28.4 54 -10.2 13.6
21:15 1016 30 845 24.95 -2 28.5 53 -10.2 13.6
21:20 1016 30 845 24.95 -1.9 28.6 53 -10.2 13.7
21:25 1016 30 845 24.95 -2 28.5 53 -10.4 13.4
21:30 1016 30 845 24.95 -2.2 28.1 54 -10.3 13.4
21:35 1016 30 845 24.95 -2.3 27.8 54 -10.4 13.2
21:40 1016 30 846 24.98 -2.5 27.5 55 -10.4 13.2
21:45 1016 30 845 24.95 -2.5 27.6 54 -10.5 13.2
21:50 1016 30 846 24.98 -2.5 27.5 54 -10.5 13.1
21:55 1016 30 846 24.98 -2.5 27.4 54 -10.6 12.9
22:00 1016 30 846 24.98 -2.7 27.1 56 -10.4 13.3
22:05 1016 30 846 24.98 -2.8 26.9 57 -10.2 13.7
22:10 1016 30 846 24.98 -3.1 26.4 57 -10.4 13.2
22:15 1016 30 846 24.98 -3.5 25.8 57 -10.8 12.5
22:20 1017 30.03 846 24.98 -3.6 25.6 57 -10.9 12.4
22:25 1017 30.03 846 24.98 -3.7 25.3 58 -10.9 12.4
22:30 1017 30.03 846 24.98 -3.8 25.2 58 -10.9 12.4
22:35 1017 30.03 846 24.98 -3.8 25.1 58 -10.9 12.4
22:40 1017 30.03 846 24.98 -3.7 25.4 58 -10.8 12.6
22:45 1017 30.03 846 24.98 -3.5 25.8 57 -10.8 12.6
22:50 1017 30.03 846 24.98 -3.5 25.7 58 -10.6 12.9
22:55 1017 30.03 846 24.98 -3.3 26 56 -10.8 12.6
23:00 1017 30.03 846 24.98 -2.8 26.9 55 -10.7 12.8
23:05 1017 30.03 846 24.98 -2.7 27.2 55 -10.6 13
23:10 1017 30.03 846 24.98 -2.4 27.6 53 -10.7 12.7
23:15 1017 30.03 846 24.98 -2.1 28.2 53 -10.5 13.2
23:20 1017 30.03 846 24.98 -2 28.3 53 -10.3 13.4
23:25 1017 30.03 846 24.98 -2 28.4 53 -10.4 13.2
23:30 1017 30.03 846 24.98 -2 28.4 54 -10.2 13.6
23:35 1017 30.03 846 24.98 -2.1 28.2 54 -10.2 13.7
23:40 1017 30.03 846 24.98 -2.2 28 56 -9.9 14.1
23:45 1017 30.03 846 24.98 -2.3 27.9 55 -10.1 13.9
23:50 1017 30.03 846 24.98 -2.4 27.7 57 -9.7 14.5
23:55 1017 30.03 846 24.98 -2.6 27.2 56 -10.1 13.7
24:00 1017 30.03 846 24.98 -2.5 27.6 56 -10.1 13.8